sensor_id;sensor_type;location;lat;lon;timestamp;P1;durP1;ratioP1;P2;durP2;ratioP2
74689;SDS011;63221;51.860;-2.188;2023-07-02T00:00:18;16.70;;;7.07;;
74689;SDS011;63221;51.860;-2.188;2023-07-02T00:02:44;19.87;;;6.63;;
74689;SDS011;63221;51.860;-2.188;2023-07-02T00:05:09;17.97;;;6.83;;
74689;SDS011;63221;51.860;-2.188;2023-07-02T00:07:34;18.23;;;5.43;;
74689;SDS011;63221;51.860;-2.188;2023-07-02T00:10:01;19.17;;;6.35;;
74689;SDS011;63221;51.860;-2.188;2023-07-02T00:12:27;13.10;;;6.13;;
74689;SDS011;63221;51.860;-2.188;2023-07-02T00:14:52;23.13;;;7.70;;
74689;SDS011;63221;51.860;-2.188;2023-07-02T00:17:18;16.37;;;6.23;;
74689;SDS011;63221;51.860;-2.188;2023-07-02T00:19:44;19.70;;;6.05;;
74689;SDS011;63221;51.860;-2.188;2023-07-02T00:22:11;19.45;;;5.78;;
74689;SDS011;63221;51.860;-2.188;2023-07-02T00:24:37;18.57;;;6.43;;
74689;SDS011;63221;51.860;-2.188;2023-07-02T00:27:02;19.60;;;5.80;;
74689;SDS011;63221;51.860;-2.188;2023-07-02T00:29:28;17.60;;;5.97;;
74689;SDS011;63221;51.860;-2.188;2023-07-02T00:31:53;19.70;;;6.40;;
74689;SDS011;63221;51.860;-2.188;2023-07-02T00:34:19;15.80;;;5.50;;
74689;SDS011;63221;51.860;-2.188;2023-07-02T00:36:44;14.53;;;5.73;;
74689;SDS011;63221;51.860;-2.188;2023-07-02T00:39:10;14.77;;;5.45;;
74689;SDS011;63221;51.860;-2.188;2023-07-02T00:41:38;14.75;;;5.38;;
74689;SDS011;63221;51.860;-2.188;2023-07-02T00:44:05;15.90;;;5.77;;
74689;SDS011;63221;51.860;-2.188;2023-07-02T00:46:30;15.23;;;5.40;;
74689;SDS011;63221;51.860;-2.188;2023-07-02T00:48:56;17.07;;;6.03;;
74689;SDS011;63221;51.860;-2.188;2023-07-02T00:51:22;16.00;;;5.90;;
74689;SDS011;63221;51.860;-2.188;2023-07-02T00:53:49;19.33;;;5.53;;
74689;SDS011;63221;51.860;-2.188;2023-07-02T00:56:16;17.52;;;6.85;;
74689;SDS011;63221;51.860;-2.188;2023-07-02T00:58:43;17.80;;;5.97;;
74689;SDS011;63221;51.860;-2.188;2023-07-02T01:01:12;18.30;;;6.10;;
74689;SDS011;63221;51.860;-2.188;2023-07-02T01:03:39;19.57;;;6.27;;
74689;SDS011;63221;51.860;-2.188;2023-07-02T01:06:17;14.07;;;5.22;;
74689;SDS011;63221;51.860;-2.188;2023-07-02T01:08:45;12.98;;;4.93;;
74689;SDS011;63221;51.860;-2.188;2023-07-02T01:11:10;16.33;;;7.67;;
74689;SDS011;63221;51.860;-2.188;2023-07-02T01:13:36;19.48;;;5.45;;
74689;SDS011;63221;51.860;-2.188;2023-07-02T01:16:01;14.77;;;6.47;;
74689;SDS011;63221;51.860;-2.188;2023-07-02T01:18:27;21.15;;;5.40;;
74689;SDS011;63221;51.860;-2.188;2023-07-02T01:20:52;17.10;;;5.60;;
74689;SDS011;63221;51.860;-2.188;2023-07-02T01:23:18;19.83;;;6.07;;
74689;SDS011;63221;51.860;-2.188;2023-07-02T01:25:44;16.15;;;5.80;;
74689;SDS011;63221;51.860;-2.188;2023-07-02T01:28:10;15.25;;;5.40;;
74689;SDS011;63221;51.860;-2.188;2023-07-02T01:30:38;19.50;;;6.13;;
74689;SDS011;63221;51.860;-2.188;2023-07-02T01:33:04;15.93;;;5.43;;
74689;SDS011;63221;51.860;-2.188;2023-07-02T01:35:29;18.87;;;5.10;;
74689;SDS011;63221;51.860;-2.188;2023-07-02T01:37:55;13.93;;;5.03;;
74689;SDS011;63221;51.860;-2.188;2023-07-02T01:40:20;16.60;;;6.10;;
74689;SDS011;63221;51.860;-2.188;2023-07-02T01:42:45;15.77;;;6.33;;
74689;SDS011;63221;51.860;-2.188;2023-07-02T01:45:11;16.95;;;5.07;;
74689;SDS011;63221;51.860;-2.188;2023-07-02T01:47:36;18.57;;;6.50;;
74689;SDS011;63221;51.860;-2.188;2023-07-02T01:50:03;18.07;;;5.57;;
74689;SDS011;63221;51.860;-2.188;2023-07-02T01:52:29;17.35;;;5.20;;
74689;SDS011;63221;51.860;-2.188;2023-07-02T01:54:58;17.25;;;5.75;;
74689;SDS011;63221;51.860;-2.188;2023-07-02T01:57:24;15.98;;;6.20;;
74689;SDS011;63221;51.860;-2.188;2023-07-02T01:59:49;15.27;;;5.37;;
74689;SDS011;63221;51.860;-2.188;2023-07-02T02:02:15;16.13;;;4.33;;
74689;SDS011;63221;51.860;-2.188;2023-07-02T02:04:40;18.10;;;5.37;;
74689;SDS011;63221;51.860;-2.188;2023-07-02T02:07:05;16.13;;;4.70;;
74689;SDS011;63221;51.860;-2.188;2023-07-02T02:09:31;16.10;;;4.78;;
74689;SDS011;63221;51.860;-2.188;2023-07-02T02:11:57;13.53;;;5.43;;
74689;SDS011;63221;51.860;-2.188;2023-07-02T02:14:23;14.25;;;4.78;;
74689;SDS011;63221;51.860;-2.188;2023-07-02T02:16:48;16.90;;;4.73;;
74689;SDS011;63221;51.860;-2.188;2023-07-02T02:19:14;12.53;;;5.00;;
74689;SDS011;63221;51.860;-2.188;2023-07-02T02:21:40;18.05;;;5.63;;
74689;SDS011;63221;51.860;-2.188;2023-07-02T02:24:06;16.98;;;6.00;;
74689;SDS011;63221;51.860;-2.188;2023-07-02T02:26:32;16.27;;;5.72;;
74689;SDS011;63221;51.860;-2.188;2023-07-02T02:28:58;16.53;;;5.50;;
74689;SDS011;63221;51.860;-2.188;2023-07-02T02:31:24;15.48;;;5.40;;
74689;SDS011;63221;51.860;-2.188;2023-07-02T02:33:49;13.43;;;4.10;;
74689;SDS011;63221;51.860;-2.188;2023-07-02T02:36:15;16.83;;;5.13;;
74689;SDS011;63221;51.860;-2.188;2023-07-02T02:38:41;12.68;;;3.80;;
74689;SDS011;63221;51.860;-2.188;2023-07-02T02:41:07;10.80;;;4.33;;
74689;SDS011;63221;51.860;-2.188;2023-07-02T02:43:33;12.23;;;4.03;;
74689;SDS011;63221;51.860;-2.188;2023-07-02T02:45:59;13.50;;;4.28;;
74689;SDS011;63221;51.860;-2.188;2023-07-02T02:48:24;13.87;;;4.33;;
74689;SDS011;63221;51.860;-2.188;2023-07-02T02:50:50;11.33;;;3.73;;
74689;SDS011;63221;51.860;-2.188;2023-07-02T02:53:16;10.68;;;3.67;;
74689;SDS011;63221;51.860;-2.188;2023-07-02T02:55:41;14.73;;;4.60;;
74689;SDS011;63221;51.860;-2.188;2023-07-02T02:58:07;11.57;;;3.60;;
74689;SDS011;63221;51.860;-2.188;2023-07-02T03:00:32;10.32;;;3.28;;
74689;SDS011;63221;51.860;-2.188;2023-07-02T03:02:58;13.20;;;3.90;;
74689;SDS011;63221;51.860;-2.188;2023-07-02T03:05:23;11.27;;;3.67;;
74689;SDS011;63221;51.860;-2.188;2023-07-02T03:07:50;17.30;;;4.53;;
74689;SDS011;63221;51.860;-2.188;2023-07-02T03:10:15;11.52;;;3.80;;
74689;SDS011;63221;51.860;-2.188;2023-07-02T03:12:41;13.23;;;5.03;;
74689;SDS011;63221;51.860;-2.188;2023-07-02T03:15:06;13.17;;;3.97;;
74689;SDS011;63221;51.860;-2.188;2023-07-02T03:17:33;12.18;;;4.22;;
74689;SDS011;63221;51.860;-2.188;2023-07-02T03:19:58;10.13;;;3.67;;
74689;SDS011;63221;51.860;-2.188;2023-07-02T03:22:24;11.55;;;4.47;;
74689;SDS011;63221;51.860;-2.188;2023-07-02T03:24:49;12.27;;;3.77;;
74689;SDS011;63221;51.860;-2.188;2023-07-02T03:27:14;10.83;;;2.43;;
74689;SDS011;63221;51.860;-2.188;2023-07-02T03:29:40;8.70;;;3.70;;
74689;SDS011;63221;51.860;-2.188;2023-07-02T03:32:05;9.83;;;3.30;;
74689;SDS011;63221;51.860;-2.188;2023-07-02T03:34:31;9.23;;;3.40;;
74689;SDS011;63221;51.860;-2.188;2023-07-02T03:36:56;11.80;;;4.03;;
74689;SDS011;63221;51.860;-2.188;2023-07-02T03:39:22;11.33;;;3.17;;
74689;SDS011;63221;51.860;-2.188;2023-07-02T03:41:47;10.82;;;3.75;;
74689;SDS011;63221;51.860;-2.188;2023-07-02T03:44:13;9.30;;;3.37;;
74689;SDS011;63221;51.860;-2.188;2023-07-02T03:46:38;10.60;;;3.80;;
74689;SDS011;63221;51.860;-2.188;2023-07-02T03:49:03;13.80;;;3.73;;
74689;SDS011;63221;51.860;-2.188;2023-07-02T03:51:29;10.75;;;3.38;;
74689;SDS011;63221;51.860;-2.188;2023-07-02T03:53:58;11.90;;;3.77;;
74689;SDS011;63221;51.860;-2.188;2023-07-02T03:56:23;14.80;;;3.50;;
74689;SDS011;63221;51.860;-2.188;2023-07-02T03:58:49;10.40;;;3.22;;
74689;SDS011;63221;51.860;-2.188;2023-07-02T04:01:14;10.17;;;2.97;;
74689;SDS011;63221;51.860;-2.188;2023-07-02T04:03:41;11.43;;;3.43;;
74689;SDS011;63221;51.860;-2.188;2023-07-02T04:06:07;10.93;;;3.25;;
74689;SDS011;63221;51.860;-2.188;2023-07-02T04:08:33;11.13;;;3.63;;
74689;SDS011;63221;51.860;-2.188;2023-07-02T04:10:59;10.07;;;2.58;;
74689;SDS011;63221;51.860;-2.188;2023-07-02T04:13:24;8.63;;;3.20;;
74689;SDS011;63221;51.860;-2.188;2023-07-02T04:15:50;9.87;;;3.30;;
74689;SDS011;63221;51.860;-2.188;2023-07-02T04:18:15;10.43;;;3.47;;
74689;SDS011;63221;51.860;-2.188;2023-07-02T04:20:40;9.07;;;2.63;;
74689;SDS011;63221;51.860;-2.188;2023-07-02T04:23:06;10.73;;;3.30;;
74689;SDS011;63221;51.860;-2.188;2023-07-02T04:25:32;11.03;;;3.17;;
74689;SDS011;63221;51.860;-2.188;2023-07-02T04:27:57;11.77;;;3.20;;
74689;SDS011;63221;51.860;-2.188;2023-07-02T04:30:24;13.27;;;4.53;;
74689;SDS011;63221;51.860;-2.188;2023-07-02T04:32:50;10.23;;;3.07;;
74689;SDS011;63221;51.860;-2.188;2023-07-02T04:35:16;9.73;;;2.72;;
74689;SDS011;63221;51.860;-2.188;2023-07-02T04:37:41;11.10;;;2.97;;
74689;SDS011;63221;51.860;-2.188;2023-07-02T04:40:07;9.40;;;3.63;;
74689;SDS011;63221;51.860;-2.188;2023-07-02T04:42:36;14.27;;;4.10;;
74689;SDS011;63221;51.860;-2.188;2023-07-02T04:45:05;13.20;;;4.70;;
74689;SDS011;63221;51.860;-2.188;2023-07-02T04:47:33;13.35;;;3.72;;
74689;SDS011;63221;51.860;-2.188;2023-07-02T04:49:59;8.95;;;2.63;;
74689;SDS011;63221;51.860;-2.188;2023-07-02T04:52:24;11.43;;;3.83;;
74689;SDS011;63221;51.860;-2.188;2023-07-02T04:54:50;10.43;;;3.08;;
74689;SDS011;63221;51.860;-2.188;2023-07-02T04:57:15;10.10;;;3.20;;
74689;SDS011;63221;51.860;-2.188;2023-07-02T04:59:41;8.40;;;2.73;;
74689;SDS011;63221;51.860;-2.188;2023-07-02T05:02:07;12.85;;;2.53;;
74689;SDS011;63221;51.860;-2.188;2023-07-02T05:04:32;10.53;;;3.60;;
74689;SDS011;63221;51.860;-2.188;2023-07-02T05:06:59;7.93;;;3.30;;
74689;SDS011;63221;51.860;-2.188;2023-07-02T05:09:25;8.60;;;3.03;;
74689;SDS011;63221;51.860;-2.188;2023-07-02T05:11:50;9.67;;;3.60;;
74689;SDS011;63221;51.860;-2.188;2023-07-02T05:14:15;10.10;;;4.87;;
74689;SDS011;63221;51.860;-2.188;2023-07-02T05:16:41;8.63;;;3.07;;
74689;SDS011;63221;51.860;-2.188;2023-07-02T05:19:06;12.00;;;3.27;;
74689;SDS011;63221;51.860;-2.188;2023-07-02T05:21:31;11.60;;;3.37;;
74689;SDS011;63221;51.860;-2.188;2023-07-02T05:23:57;12.27;;;3.63;;
74689;SDS011;63221;51.860;-2.188;2023-07-02T05:26:22;12.60;;;2.40;;
74689;SDS011;63221;51.860;-2.188;2023-07-02T05:28:48;12.17;;;3.30;;
74689;SDS011;63221;51.860;-2.188;2023-07-02T05:31:13;12.47;;;3.30;;
74689;SDS011;63221;51.860;-2.188;2023-07-02T05:33:39;10.27;;;3.27;;
74689;SDS011;63221;51.860;-2.188;2023-07-02T05:36:04;11.65;;;3.25;;
74689;SDS011;63221;51.860;-2.188;2023-07-02T05:38:29;13.03;;;3.80;;
74689;SDS011;63221;51.860;-2.188;2023-07-02T05:40:55;8.53;;;3.60;;
74689;SDS011;63221;51.860;-2.188;2023-07-02T05:43:20;11.90;;;3.13;;
74689;SDS011;63221;51.860;-2.188;2023-07-02T05:45:46;7.22;;;3.13;;
74689;SDS011;63221;51.860;-2.188;2023-07-02T05:48:11;7.10;;;2.20;;
74689;SDS011;63221;51.860;-2.188;2023-07-02T05:50:36;10.03;;;2.80;;
74689;SDS011;63221;51.860;-2.188;2023-07-02T05:53:02;9.67;;;2.73;;
74689;SDS011;63221;51.860;-2.188;2023-07-02T05:55:27;9.70;;;3.03;;
74689;SDS011;63221;51.860;-2.188;2023-07-02T05:57:53;12.10;;;2.85;;
74689;SDS011;63221;51.860;-2.188;2023-07-02T06:00:18;10.23;;;2.53;;
74689;SDS011;63221;51.860;-2.188;2023-07-02T06:02:46;12.00;;;3.87;;
74689;SDS011;63221;51.860;-2.188;2023-07-02T06:05:12;8.80;;;3.17;;
74689;SDS011;63221;51.860;-2.188;2023-07-02T06:07:37;13.90;;;3.60;;
74689;SDS011;63221;51.860;-2.188;2023-07-02T06:10:02;9.75;;;2.88;;
74689;SDS011;63221;51.860;-2.188;2023-07-02T06:12:29;13.27;;;3.03;;
74689;SDS011;63221;51.860;-2.188;2023-07-02T06:14:54;9.40;;;3.08;;
74689;SDS011;63221;51.860;-2.188;2023-07-02T06:17:20;10.37;;;3.20;;
74689;SDS011;63221;51.860;-2.188;2023-07-02T06:19:46;12.40;;;3.78;;
74689;SDS011;63221;51.860;-2.188;2023-07-02T06:22:12;10.80;;;3.00;;
74689;SDS011;63221;51.860;-2.188;2023-07-02T06:24:37;8.27;;;2.70;;
74689;SDS011;63221;51.860;-2.188;2023-07-02T06:27:03;11.30;;;3.13;;
74689;SDS011;63221;51.860;-2.188;2023-07-02T06:29:28;10.73;;;2.73;;
74689;SDS011;63221;51.860;-2.188;2023-07-02T06:31:54;7.93;;;2.80;;
74689;SDS011;63221;51.860;-2.188;2023-07-02T06:34:19;15.38;;;2.97;;
74689;SDS011;63221;51.860;-2.188;2023-07-02T06:36:45;11.73;;;3.67;;
74689;SDS011;63221;51.860;-2.188;2023-07-02T06:39:10;13.87;;;4.03;;
74689;SDS011;63221;51.860;-2.188;2023-07-02T06:41:36;10.05;;;4.60;;
74689;SDS011;63221;51.860;-2.188;2023-07-02T06:44:01;11.00;;;3.33;;
74689;SDS011;63221;51.860;-2.188;2023-07-02T06:46:27;11.07;;;3.15;;
74689;SDS011;63221;51.860;-2.188;2023-07-02T06:48:53;12.33;;;2.83;;
74689;SDS011;63221;51.860;-2.188;2023-07-02T06:51:19;11.65;;;2.42;;
74689;SDS011;63221;51.860;-2.188;2023-07-02T06:53:45;10.55;;;2.83;;
74689;SDS011;63221;51.860;-2.188;2023-07-02T06:56:11;6.67;;;2.33;;
74689;SDS011;63221;51.860;-2.188;2023-07-02T06:58:36;11.03;;;3.20;;
74689;SDS011;63221;51.860;-2.188;2023-07-02T07:01:02;11.77;;;3.10;;
74689;SDS011;63221;51.860;-2.188;2023-07-02T07:03:28;10.20;;;3.42;;
74689;SDS011;63221;51.860;-2.188;2023-07-02T07:05:53;10.20;;;3.33;;
74689;SDS011;63221;51.860;-2.188;2023-07-02T07:08:19;12.35;;;3.60;;
74689;SDS011;63221;51.860;-2.188;2023-07-02T07:10:45;11.00;;;2.90;;
74689;SDS011;63221;51.860;-2.188;2023-07-02T07:13:11;11.13;;;2.88;;
74689;SDS011;63221;51.860;-2.188;2023-07-02T07:15:37;5.78;;;2.80;;
74689;SDS011;63221;51.860;-2.188;2023-07-02T07:18:02;9.10;;;3.67;;
74689;SDS011;63221;51.860;-2.188;2023-07-02T07:20:29;9.75;;;3.38;;
74689;SDS011;63221;51.860;-2.188;2023-07-02T07:22:54;12.68;;;3.25;;
74689;SDS011;63221;51.860;-2.188;2023-07-02T07:25:20;12.47;;;3.30;;
74689;SDS011;63221;51.860;-2.188;2023-07-02T07:27:45;13.33;;;3.60;;
74689;SDS011;63221;51.860;-2.188;2023-07-02T07:30:11;9.83;;;2.80;;
74689;SDS011;63221;51.860;-2.188;2023-07-02T07:32:37;7.95;;;2.72;;
74689;SDS011;63221;51.860;-2.188;2023-07-02T07:35:02;12.93;;;2.90;;
74689;SDS011;63221;51.860;-2.188;2023-07-02T07:37:28;8.25;;;2.40;;
74689;SDS011;63221;51.860;-2.188;2023-07-02T07:39:53;7.50;;;3.00;;
74689;SDS011;63221;51.860;-2.188;2023-07-02T07:42:19;7.67;;;2.70;;
74689;SDS011;63221;51.860;-2.188;2023-07-02T07:44:44;10.55;;;2.13;;
74689;SDS011;63221;51.860;-2.188;2023-07-02T07:47:11;6.27;;;2.50;;
74689;SDS011;63221;51.860;-2.188;2023-07-02T07:49:36;10.00;;;2.38;;
74689;SDS011;63221;51.860;-2.188;2023-07-02T07:52:02;7.97;;;2.90;;
74689;SDS011;63221;51.860;-2.188;2023-07-02T07:54:28;7.88;;;2.50;;
74689;SDS011;63221;51.860;-2.188;2023-07-02T07:56:54;10.13;;;2.83;;
74689;SDS011;63221;51.860;-2.188;2023-07-02T07:59:19;7.53;;;2.88;;
74689;SDS011;63221;51.860;-2.188;2023-07-02T08:01:45;6.80;;;1.47;;
74689;SDS011;63221;51.860;-2.188;2023-07-02T08:04:11;9.73;;;2.47;;
74689;SDS011;63221;51.860;-2.188;2023-07-02T08:06:37;6.77;;;2.03;;
74689;SDS011;63221;51.860;-2.188;2023-07-02T08:09:02;10.18;;;2.67;;
74689;SDS011;63221;51.860;-2.188;2023-07-02T08:11:28;8.47;;;2.43;;
74689;SDS011;63221;51.860;-2.188;2023-07-02T08:13:54;8.10;;;2.10;;
74689;SDS011;63221;51.860;-2.188;2023-07-02T08:16:19;9.73;;;1.92;;
74689;SDS011;63221;51.860;-2.188;2023-07-02T08:18:44;7.07;;;2.73;;
74689;SDS011;63221;51.860;-2.188;2023-07-02T08:21:10;5.90;;;1.93;;
74689;SDS011;63221;51.860;-2.188;2023-07-02T08:23:36;6.50;;;2.28;;
74689;SDS011;63221;51.860;-2.188;2023-07-02T08:26:02;7.30;;;1.77;;
74689;SDS011;63221;51.860;-2.188;2023-07-02T08:28:28;7.30;;;1.50;;
74689;SDS011;63221;51.860;-2.188;2023-07-02T08:30:53;4.35;;;1.13;;
74689;SDS011;63221;51.860;-2.188;2023-07-02T08:33:19;8.80;;;1.70;;
74689;SDS011;63221;51.860;-2.188;2023-07-02T08:35:45;5.15;;;1.30;;
74689;SDS011;63221;51.860;-2.188;2023-07-02T08:38:10;5.27;;;2.10;;
74689;SDS011;63221;51.860;-2.188;2023-07-02T08:40:36;7.10;;;1.90;;
74689;SDS011;63221;51.860;-2.188;2023-07-02T08:43:01;5.60;;;1.27;;
74689;SDS011;63221;51.860;-2.188;2023-07-02T08:45:27;4.27;;;1.47;;
74689;SDS011;63221;51.860;-2.188;2023-07-02T08:47:53;10.38;;;1.55;;
74689;SDS011;63221;51.860;-2.188;2023-07-02T08:50:21;6.43;;;1.55;;
74689;SDS011;63221;51.860;-2.188;2023-07-02T08:52:47;7.40;;;1.60;;
74689;SDS011;63221;51.860;-2.188;2023-07-02T08:55:13;6.30;;;1.57;;
74689;SDS011;63221;51.860;-2.188;2023-07-02T08:57:38;4.43;;;1.27;;
74689;SDS011;63221;51.860;-2.188;2023-07-02T09:00:10;7.65;;;2.03;;
74689;SDS011;63221;51.860;-2.188;2023-07-02T09:02:36;4.80;;;1.15;;
74689;SDS011;63221;51.860;-2.188;2023-07-02T09:05:02;5.23;;;1.23;;
74689;SDS011;63221;51.860;-2.188;2023-07-02T09:07:28;4.97;;;1.02;;
74689;SDS011;63221;51.860;-2.188;2023-07-02T09:09:54;3.95;;;1.13;;
74689;SDS011;63221;51.860;-2.188;2023-07-02T09:12:26;6.23;;;1.23;;
74689;SDS011;63221;51.860;-2.188;2023-07-02T09:14:59;5.13;;;1.38;;
74689;SDS011;63221;51.860;-2.188;2023-07-02T09:17:33;3.72;;;1.23;;
74689;SDS011;63221;51.860;-2.188;2023-07-02T09:19:59;4.63;;;1.35;;
74689;SDS011;63221;51.860;-2.188;2023-07-02T09:22:27;7.10;;;1.43;;
74689;SDS011;63221;51.860;-2.188;2023-07-02T09:24:54;5.35;;;1.52;;
74689;SDS011;63221;51.860;-2.188;2023-07-02T09:27:20;7.10;;;1.45;;
74689;SDS011;63221;51.860;-2.188;2023-07-02T09:29:49;6.80;;;1.40;;
74689;SDS011;63221;51.860;-2.188;2023-07-02T09:32:23;5.53;;;1.23;;
74689;SDS011;63221;51.860;-2.188;2023-07-02T09:34:50;3.67;;;1.37;;
74689;SDS011;63221;51.860;-2.188;2023-07-02T09:37:15;4.85;;;1.23;;
74689;SDS011;63221;51.860;-2.188;2023-07-02T09:39:41;6.30;;;1.20;;
74689;SDS011;63221;51.860;-2.188;2023-07-02T09:42:07;3.63;;;1.07;;
74689;SDS011;63221;51.860;-2.188;2023-07-02T09:44:35;4.70;;;1.48;;
74689;SDS011;63221;51.860;-2.188;2023-07-02T09:47:07;5.07;;;1.63;;
74689;SDS011;63221;51.860;-2.188;2023-07-02T09:49:34;6.95;;;2.83;;
74689;SDS011;63221;51.860;-2.188;2023-07-02T09:52:01;6.57;;;1.23;;
74689;SDS011;63221;51.860;-2.188;2023-07-02T09:54:28;7.70;;;2.60;;
74689;SDS011;63221;51.860;-2.188;2023-07-02T09:56:55;3.92;;;1.20;;
74689;SDS011;63221;51.860;-2.188;2023-07-02T09:59:21;5.88;;;1.25;;
74689;SDS011;63221;51.860;-2.188;2023-07-02T10:01:46;4.70;;;0.87;;
74689;SDS011;63221;51.860;-2.188;2023-07-02T10:04:13;5.73;;;1.17;;
74689;SDS011;63221;51.860;-2.188;2023-07-02T10:09:11;7.85;;;1.80;;
74689;SDS011;63221;51.860;-2.188;2023-07-02T10:11:37;6.17;;;1.17;;
74689;SDS011;63221;51.860;-2.188;2023-07-02T10:14:02;7.07;;;1.60;;
74689;SDS011;63221;51.860;-2.188;2023-07-02T10:16:28;4.60;;;1.43;;
74689;SDS011;63221;51.860;-2.188;2023-07-02T10:19:07;6.55;;;1.92;;
74689;SDS011;63221;51.860;-2.188;2023-07-02T10:21:33;5.25;;;1.35;;
74689;SDS011;63221;51.860;-2.188;2023-07-02T10:24:08;7.03;;;1.57;;
74689;SDS011;63221;51.860;-2.188;2023-07-02T10:26:34;3.70;;;1.15;;
74689;SDS011;63221;51.860;-2.188;2023-07-02T10:29:00;5.13;;;1.33;;
74689;SDS011;63221;51.860;-2.188;2023-07-02T10:31:25;4.68;;;1.13;;
74689;SDS011;63221;51.860;-2.188;2023-07-02T10:33:51;5.47;;;1.57;;
74689;SDS011;63221;51.860;-2.188;2023-07-02T10:36:17;3.97;;;2.13;;
74689;SDS011;63221;51.860;-2.188;2023-07-02T10:38:44;6.65;;;1.50;;
74689;SDS011;63221;51.860;-2.188;2023-07-02T10:41:09;8.00;;;1.27;;
74689;SDS011;63221;51.860;-2.188;2023-07-02T10:43:35;4.60;;;1.70;;
74689;SDS011;63221;51.860;-2.188;2023-07-02T10:46:00;5.27;;;1.30;;
74689;SDS011;63221;51.860;-2.188;2023-07-02T10:48:26;3.00;;;1.20;;
74689;SDS011;63221;51.860;-2.188;2023-07-02T10:50:51;4.87;;;1.30;;
74689;SDS011;63221;51.860;-2.188;2023-07-02T10:53:18;6.45;;;1.58;;
74689;SDS011;63221;51.860;-2.188;2023-07-02T10:55:44;5.80;;;1.70;;
74689;SDS011;63221;51.860;-2.188;2023-07-02T10:58:10;6.53;;;1.27;;
74689;SDS011;63221;51.860;-2.188;2023-07-02T11:00:43;5.22;;;1.27;;
74689;SDS011;63221;51.860;-2.188;2023-07-02T11:03:22;8.32;;;1.40;;
74689;SDS011;63221;51.860;-2.188;2023-07-02T11:05:49;6.18;;;1.27;;
74689;SDS011;63221;51.860;-2.188;2023-07-02T11:08:15;5.37;;;1.27;;
74689;SDS011;63221;51.860;-2.188;2023-07-02T11:10:41;4.35;;;0.77;;
74689;SDS011;63221;51.860;-2.188;2023-07-02T11:13:19;4.30;;;1.40;;
74689;SDS011;63221;51.860;-2.188;2023-07-02T11:15:45;4.40;;;1.53;;
74689;SDS011;63221;51.860;-2.188;2023-07-02T11:18:11;4.07;;;1.25;;
74689;SDS011;63221;51.860;-2.188;2023-07-02T11:20:37;4.90;;;1.58;;
74689;SDS011;63221;51.860;-2.188;2023-07-02T11:23:04;5.18;;;1.45;;
74689;SDS011;63221;51.860;-2.188;2023-07-02T11:25:29;5.23;;;1.60;;
74689;SDS011;63221;51.860;-2.188;2023-07-02T11:28:04;5.00;;;2.07;;
74689;SDS011;63221;51.860;-2.188;2023-07-02T11:30:29;5.50;;;1.40;;
74689;SDS011;63221;51.860;-2.188;2023-07-02T11:32:55;6.23;;;1.33;;
74689;SDS011;63221;51.860;-2.188;2023-07-02T11:35:21;6.63;;;1.40;;
74689;SDS011;63221;51.860;-2.188;2023-07-02T11:37:47;9.60;;;1.88;;
74689;SDS011;63221;51.860;-2.188;2023-07-02T11:40:14;4.97;;;1.50;;
74689;SDS011;63221;51.860;-2.188;2023-07-02T11:42:40;8.03;;;1.47;;
74689;SDS011;63221;51.860;-2.188;2023-07-02T11:45:06;4.20;;;1.30;;
74689;SDS011;63221;51.860;-2.188;2023-07-02T11:47:32;8.27;;;3.23;;
74689;SDS011;63221;51.860;-2.188;2023-07-02T11:49:57;7.00;;;1.98;;
74689;SDS011;63221;51.860;-2.188;2023-07-02T11:52:26;3.23;;;1.27;;
74689;SDS011;63221;51.860;-2.188;2023-07-02T11:54:51;6.47;;;1.25;;
74689;SDS011;63221;51.860;-2.188;2023-07-02T11:57:16;4.93;;;1.20;;
74689;SDS011;63221;51.860;-2.188;2023-07-02T11:59:42;7.13;;;1.77;;
74689;SDS011;63221;51.860;-2.188;2023-07-02T12:02:07;3.73;;;1.20;;
74689;SDS011;63221;51.860;-2.188;2023-07-02T12:04:33;5.10;;;1.45;;
74689;SDS011;63221;51.860;-2.188;2023-07-02T12:06:59;6.27;;;1.50;;
74689;SDS011;63221;51.860;-2.188;2023-07-02T12:09:26;5.63;;;1.80;;
74689;SDS011;63221;51.860;-2.188;2023-07-02T12:11:52;4.33;;;1.00;;
74689;SDS011;63221;51.860;-2.188;2023-07-02T12:14:18;5.63;;;1.10;;
74689;SDS011;63221;51.860;-2.188;2023-07-02T12:16:43;4.70;;;1.20;;
74689;SDS011;63221;51.860;-2.188;2023-07-02T12:19:08;4.53;;;1.67;;
74689;SDS011;63221;51.860;-2.188;2023-07-02T12:21:35;6.15;;;1.25;;
74689;SDS011;63221;51.860;-2.188;2023-07-02T12:24:00;5.67;;;1.43;;
74689;SDS011;63221;51.860;-2.188;2023-07-02T12:26:25;5.50;;;1.43;;
74689;SDS011;63221;51.860;-2.188;2023-07-02T12:28:51;4.38;;;1.52;;
74689;SDS011;63221;51.860;-2.188;2023-07-02T12:31:16;3.83;;;1.60;;
74689;SDS011;63221;51.860;-2.188;2023-07-02T12:33:42;5.67;;;1.50;;
74689;SDS011;63221;51.860;-2.188;2023-07-02T12:36:07;5.43;;;1.33;;
74689;SDS011;63221;51.860;-2.188;2023-07-02T12:38:32;5.53;;;1.43;;
74689;SDS011;63221;51.860;-2.188;2023-07-02T12:40:58;4.13;;;1.38;;
74689;SDS011;63221;51.860;-2.188;2023-07-02T12:43:23;4.27;;;1.23;;
74689;SDS011;63221;51.860;-2.188;2023-07-02T12:45:49;2.60;;;0.87;;
74689;SDS011;63221;51.860;-2.188;2023-07-02T12:48:15;5.93;;;2.33;;
74689;SDS011;63221;51.860;-2.188;2023-07-02T12:50:40;6.00;;;1.43;;
74689;SDS011;63221;51.860;-2.188;2023-07-02T12:53:05;5.40;;;1.40;;
74689;SDS011;63221;51.860;-2.188;2023-07-02T12:55:31;5.40;;;1.23;;
74689;SDS011;63221;51.860;-2.188;2023-07-02T12:57:56;2.90;;;1.13;;
74689;SDS011;63221;51.860;-2.188;2023-07-02T13:00:22;5.43;;;1.37;;
74689;SDS011;63221;51.860;-2.188;2023-07-02T13:02:48;4.68;;;2.05;;
74689;SDS011;63221;51.860;-2.188;2023-07-02T13:05:13;6.10;;;1.23;;
74689;SDS011;63221;51.860;-2.188;2023-07-02T13:07:39;4.57;;;1.85;;
74689;SDS011;63221;51.860;-2.188;2023-07-02T13:10:04;8.67;;;2.20;;
74689;SDS011;63221;51.860;-2.188;2023-07-02T13:12:30;6.10;;;1.30;;
74689;SDS011;63221;51.860;-2.188;2023-07-02T13:14:56;4.90;;;1.43;;
74689;SDS011;63221;51.860;-2.188;2023-07-02T13:17:21;7.63;;;2.07;;
74689;SDS011;63221;51.860;-2.188;2023-07-02T13:19:47;4.57;;;1.23;;
74689;SDS011;63221;51.860;-2.188;2023-07-02T13:22:14;7.45;;;1.35;;
74689;SDS011;63221;51.860;-2.188;2023-07-02T13:24:39;6.88;;;1.17;;
74689;SDS011;63221;51.860;-2.188;2023-07-02T13:27:07;4.63;;;1.20;;
74689;SDS011;63221;51.860;-2.188;2023-07-02T13:29:34;4.68;;;1.25;;
74689;SDS011;63221;51.860;-2.188;2023-07-02T13:32:00;7.53;;;1.37;;
74689;SDS011;63221;51.860;-2.188;2023-07-02T13:34:25;5.25;;;1.23;;
74689;SDS011;63221;51.860;-2.188;2023-07-02T13:36:51;5.77;;;1.30;;
74689;SDS011;63221;51.860;-2.188;2023-07-02T13:39:16;5.17;;;1.23;;
74689;SDS011;63221;51.860;-2.188;2023-07-02T13:41:42;6.20;;;1.95;;
74689;SDS011;63221;51.860;-2.188;2023-07-02T13:44:07;6.00;;;2.00;;
74689;SDS011;63221;51.860;-2.188;2023-07-02T13:46:33;3.43;;;1.50;;
74689;SDS011;63221;51.860;-2.188;2023-07-02T13:48:58;4.77;;;2.03;;
74689;SDS011;63221;51.860;-2.188;2023-07-02T13:51:24;5.73;;;1.53;;
74689;SDS011;63221;51.860;-2.188;2023-07-02T13:53:49;5.00;;;1.33;;
74689;SDS011;63221;51.860;-2.188;2023-07-02T13:56:14;6.17;;;2.10;;
74689;SDS011;63221;51.860;-2.188;2023-07-02T13:58:47;4.63;;;1.37;;
74689;SDS011;63221;51.860;-2.188;2023-07-02T14:01:23;5.40;;;1.58;;
74689;SDS011;63221;51.860;-2.188;2023-07-02T14:03:49;5.20;;;1.73;;
74689;SDS011;63221;51.860;-2.188;2023-07-02T14:06:14;3.80;;;1.50;;
74689;SDS011;63221;51.860;-2.188;2023-07-02T14:08:40;7.73;;;1.37;;
74689;SDS011;63221;51.860;-2.188;2023-07-02T14:11:06;4.75;;;2.35;;
74689;SDS011;63221;51.860;-2.188;2023-07-02T14:13:31;4.27;;;1.47;;
74689;SDS011;63221;51.860;-2.188;2023-07-02T14:15:57;5.43;;;1.53;;
74689;SDS011;63221;51.860;-2.188;2023-07-02T14:18:23;6.15;;;1.60;;
74689;SDS011;63221;51.860;-2.188;2023-07-02T14:20:48;4.17;;;1.20;;
74689;SDS011;63221;51.860;-2.188;2023-07-02T14:23:14;6.35;;;1.60;;